createdAt,value
2023-01-08T05:00:28.973Z,93.90
2023-01-08T05:01:28.952Z,94.31
2023-01-08T05:02:29.033Z,94.42
2023-01-08T05:03:28.858Z,94.31
2023-01-08T05:04:28.780Z,94.73
2023-01-08T05:05:28.757Z,95.65
2023-01-08T05:06:28.746Z,95.75
2023-01-08T05:07:28.739Z,95.55
2023-01-08T05:08:28.726Z,95.80
2023-01-08T05:09:28.724Z,95.80
2023-01-08T05:10:28.697Z,96.42
2023-01-08T05:11:33.728Z,96.83
2023-01-08T05:12:28.680Z,97.65
2023-01-08T05:13:28.696Z,97.75
2023-01-08T05:14:28.707Z,97.44
2023-01-08T05:15:28.752Z,97.65
2023-01-08T05:16:28.867Z,97.55
2023-01-08T05:17:28.629Z,97.24
2023-01-08T05:18:29.621Z,97.75
2023-01-08T05:19:28.627Z,97.24
2023-01-08T05:20:28.587Z,97.65
2023-01-08T05:21:28.582Z,98.06
2023-01-08T05:22:33.586Z,98.37
2023-01-08T05:23:28.557Z,98.37
2023-01-08T05:24:29.003Z,98.68
2023-01-08T05:25:28.542Z,98.37
2023-01-08T05:26:28.530Z,98.88
2023-01-08T05:27:28.567Z,99.09
2023-01-08T05:28:28.507Z,98.37
2023-01-08T05:29:28.509Z,98.37
2023-01-08T05:30:28.484Z,98.58
2023-01-08T05:31:28.472Z,98.88
2023-01-08T05:32:28.575Z,98.58
2023-01-08T05:33:33.465Z,98.58
2023-01-08T05:34:28.424Z,98.88
2023-01-08T05:35:28.437Z,98.47
2023-01-08T05:36:28.406Z,99.09
2023-01-08T05:37:29.392Z,99.09
2023-01-08T05:38:28.393Z,98.88
2023-01-08T05:39:28.442Z,98.99
2023-01-08T05:40:28.392Z,99.09
2023-01-08T05:41:28.365Z,99.60
2023-01-08T05:42:28.343Z,99.60
2023-01-08T05:43:28.331Z,99.51
2023-01-08T05:44:33.361Z,99.60
2023-01-08T05:45:28.354Z,99.71
2023-01-08T05:46:28.388Z,99.91
2023-01-08T05:47:28.292Z,99.81
2023-01-08T05:48:28.385Z,99.91
2023-01-08T05:49:28.274Z,99.91
2023-01-08T05:50:28.290Z,99.60
2023-01-08T05:51:28.249Z,99.51
2023-01-08T05:52:28.235Z,99.60
2023-01-08T05:53:28.217Z,99.81
2023-01-08T05:54:28.200Z,99.99
2023-01-08T05:55:33.284Z,99.91
2023-01-08T05:56:28.178Z,99.55
2023-01-08T05:57:28.206Z,99.99
2023-01-08T05:58:28.175Z,99.99
2023-01-08T05:59:28.150Z,99.99
2023-01-08T06:00:28.143Z,99.51
2023-01-08T06:01:28.169Z,99.99
2023-01-08T06:02:28.142Z,99.99
2023-01-08T06:03:28.103Z,99.99
2023-01-08T06:04:28.239Z,99.99
2023-01-08T06:05:28.089Z,99.99
2023-01-08T06:06:34.089Z,99.99
2023-01-08T06:07:28.057Z,99.99
2023-01-08T06:08:28.053Z,99.99
2023-01-08T06:09:28.046Z,99.99
2023-01-08T06:10:28.029Z,99.99
2023-01-08T06:11:28.008Z,99.99
2023-01-08T06:12:27.998Z,99.99
2023-01-08T06:13:28.005Z,99.99
2023-01-08T06:14:27.984Z,99.99
2023-01-08T06:15:27.966Z,99.99
2023-01-08T06:16:27.963Z,99.99
2023-01-08T06:17:32.968Z,99.99
2023-01-08T06:18:27.931Z,99.99
2023-01-08T06:19:27.940Z,99.99
2023-01-08T06:20:28.075Z,99.99
2023-01-08T06:21:27.904Z,99.99
2023-01-08T06:22:27.888Z,99.99
2023-01-08T06:23:27.886Z,99.99
2023-01-08T06:24:27.878Z,99.81
2023-01-08T06:25:27.870Z,99.81
2023-01-08T06:26:27.875Z,99.60
2023-01-08T06:27:27.834Z,99.30
2023-01-08T06:28:32.845Z,99.19
2023-01-08T06:29:27.828Z,99.81
2023-01-08T06:30:27.795Z,99.71
2023-01-08T06:31:27.842Z,99.71
2023-01-08T06:32:27.779Z,99.60
2023-01-08T06:33:27.782Z,98.88
2023-01-08T06:34:27.769Z,99.19
2023-01-08T06:35:27.740Z,99.15
2023-01-08T06:36:27.761Z,99.35
2023-01-08T06:37:27.744Z,98.99
2023-01-08T06:38:27.728Z,99.25
2023-01-08T06:39:32.752Z,98.22
2023-01-08T06:40:27.681Z,98.88
2023-01-08T06:41:27.678Z,98.22
2023-01-08T06:42:27.675Z,98.84
2023-01-08T06:43:27.663Z,98.43
2023-01-08T06:44:27.643Z,98.63
2023-01-08T06:45:27.646Z,98.63
2023-01-08T06:46:27.651Z,99.15
2023-01-08T06:47:27.603Z,99.19
2023-01-08T06:48:27.603Z,99.05
2023-01-08T06:49:27.609Z,98.84
2023-01-08T06:50:32.620Z,99.25
2023-01-08T06:51:27.557Z,98.53
2023-01-08T06:52:27.664Z,98.94
2023-01-08T06:53:27.568Z,99.15
2023-01-08T06:54:27.557Z,98.84
2023-01-08T06:55:27.543Z,99.05
2023-01-08T06:56:27.503Z,98.84
2023-01-08T06:57:27.490Z,99.05
2023-01-08T06:58:27.477Z,98.84
2023-01-08T06:59:27.496Z,98.84
2023-01-08T07:00:27.495Z,99.25
2023-01-08T07:01:32.557Z,99.77
2023-01-08T07:02:27.678Z,99.46
2023-01-08T07:03:27.563Z,98.84
2023-01-08T07:04:27.418Z,99.56
2023-01-08T07:05:27.556Z,99.56
2023-01-08T07:06:27.390Z,99.97
2023-01-08T07:07:27.430Z,99.87
2023-01-08T07:08:27.487Z,99.97
2023-01-08T07:09:27.380Z,99.99
2023-01-08T07:10:27.387Z,99.99
2023-01-08T07:11:27.350Z,99.99
2023-01-08T07:12:32.378Z,99.87
2023-01-08T07:13:27.308Z,99.99
2023-01-08T07:14:27.309Z,99.99
2023-01-08T07:15:27.311Z,99.99
2023-01-08T07:16:27.341Z,99.99
2023-01-08T07:17:27.264Z,99.99
2023-01-08T07:18:27.263Z,99.99
2023-01-08T07:19:27.238Z,99.99
2023-01-08T07:20:27.240Z,99.99
2023-01-08T07:21:27.217Z,99.99
2023-01-08T07:22:27.219Z,99.99
2023-01-08T07:23:32.337Z,99.99
2023-01-08T07:24:27.185Z,99.99
2023-01-08T07:25:27.187Z,99.99
2023-01-08T07:26:27.167Z,99.99
2023-01-08T07:27:27.149Z,99.99
2023-01-08T07:28:27.177Z,99.99
2023-01-08T07:29:27.130Z,99.99
2023-01-08T07:30:30.185Z,99.99
2023-01-08T07:31:27.122Z,99.99
2023-01-08T07:32:27.143Z,99.99
2023-01-08T07:33:27.087Z,99.99
2023-01-08T07:34:32.101Z,99.99
2023-01-08T07:35:27.068Z,99.99
2023-01-08T07:36:27.059Z,99.99
2023-01-08T07:37:27.094Z,99.99
2023-01-08T07:38:27.033Z,99.99
2023-01-08T07:39:27.152Z,99.99
2023-01-08T07:40:27.046Z,99.99
2023-01-08T07:41:26.995Z,99.99
2023-01-08T07:42:26.980Z,99.99
2023-01-08T07:43:26.970Z,99.99
2023-01-08T07:44:26.970Z,99.99
2023-01-08T07:45:31.987Z,99.99
2023-01-08T07:46:27.092Z,99.99
2023-01-08T07:47:26.970Z,99.99
2023-01-08T07:48:26.930Z,99.99
2023-01-08T07:49:26.906Z,99.99
2023-01-08T07:50:26.968Z,99.99
2023-01-08T07:51:26.878Z,99.99
2023-01-08T07:52:26.874Z,99.99
2023-01-08T07:53:26.854Z,99.99
2023-01-08T07:54:26.850Z,99.99
2023-01-08T07:55:26.969Z,99.99
2023-01-08T07:56:31.865Z,99.99
2023-01-08T07:57:26.816Z,99.99
2023-01-08T07:58:26.844Z,99.99
2023-01-08T07:59:26.791Z,99.99
2023-01-08T08:00:26.859Z,99.99
2023-01-08T08:01:26.846Z,99.99
2023-01-08T08:02:26.940Z,99.99
2023-01-08T08:03:26.929Z,99.99
2023-01-08T08:04:26.815Z,99.99
2023-01-08T08:05:26.734Z,99.99
2023-01-08T08:06:26.711Z,99.99
2023-01-08T08:07:31.724Z,99.99
2023-01-08T08:08:26.685Z,99.99
2023-01-08T08:09:26.676Z,99.99
2023-01-08T08:10:26.678Z,99.99
2023-01-08T08:11:26.778Z,99.99
2023-01-08T08:12:26.676Z,99.99
2023-01-08T08:13:26.632Z,99.99
2023-01-08T08:14:26.618Z,99.99
2023-01-08T08:15:26.619Z,99.99
2023-01-08T08:16:26.724Z,99.99
2023-01-08T08:17:26.652Z,99.99
2023-01-08T08:18:31.603Z,99.99
2023-01-08T08:19:26.569Z,99.99
2023-01-08T08:20:26.747Z,99.99
2023-01-08T08:21:26.536Z,99.99
2023-01-08T08:22:26.561Z,99.99
2023-01-08T08:23:26.559Z,99.99
2023-01-08T08:24:26.525Z,99.99
2023-01-08T08:25:26.622Z,99.99
2023-01-08T08:26:26.489Z,99.99
2023-01-08T08:27:26.596Z,99.99
2023-01-08T08:28:26.468Z,99.99
2023-01-08T08:29:31.471Z,99.99
2023-01-08T08:30:26.552Z,99.99
2023-01-08T08:31:26.759Z,99.99
2023-01-08T08:32:26.415Z,99.99
2023-01-08T08:33:26.457Z,99.99
2023-01-08T08:34:26.738Z,99.99
2023-01-08T08:35:26.420Z,99.99
2023-01-08T08:36:26.429Z,99.99
2023-01-08T08:37:26.692Z,99.99
2023-01-08T08:38:26.512Z,99.99
2023-01-08T08:39:26.379Z,99.99
2023-01-08T08:40:31.387Z,99.99
2023-01-08T08:41:26.384Z,99.99
2023-01-08T08:42:26.353Z,99.99
2023-01-08T08:43:26.327Z,99.99
2023-01-08T08:44:26.303Z,99.99
2023-01-08T08:45:26.757Z,99.99
2023-01-08T08:46:26.323Z,99.99
2023-01-08T08:47:26.251Z,99.99
2023-01-08T08:48:26.238Z,99.99
2023-01-08T08:49:26.220Z,99.99
2023-01-08T08:50:26.321Z,99.99
2023-01-08T08:51:31.339Z,99.99
2023-01-08T08:52:26.610Z,99.99
2023-01-08T08:53:27.705Z,99.99
2023-01-08T08:54:26.167Z,99.99
2023-01-08T08:55:26.160Z,99.99
2023-01-08T08:56:26.154Z,99.99
2023-01-08T08:57:26.147Z,99.99
2023-01-08T08:58:26.193Z,99.99
2023-01-08T08:59:26.418Z,99.99
2023-01-08T09:00:27.292Z,99.99
2023-01-08T09:01:26.268Z,99.99
2023-01-08T09:02:31.489Z,99.99
2023-01-08T09:03:26.136Z,99.99
2023-01-08T09:04:26.053Z,99.99
2023-01-08T09:05:26.101Z,99.99
2023-01-08T09:06:26.029Z,99.99
2023-01-08T09:07:26.029Z,99.99
2023-01-08T09:08:28.964Z,99.99
2023-01-08T09:09:26.007Z,99.99
2023-01-08T09:10:26.059Z,99.99
2023-01-08T09:11:26.133Z,99.99
2023-01-08T09:12:25.963Z,99.99
2023-01-08T09:13:30.975Z,99.99
2023-01-08T09:14:25.963Z,99.99
2023-01-08T09:15:26.093Z,99.99
2023-01-08T09:16:25.975Z,99.99
2023-01-08T09:17:26.135Z,99.99
2023-01-08T09:18:25.927Z,99.99
2023-01-08T09:19:25.916Z,99.99
2023-01-08T09:20:25.929Z,99.99
2023-01-08T09:21:25.855Z,99.99
2023-01-08T09:22:25.847Z,99.99
2023-01-08T09:23:26.010Z,99.99
2023-01-08T09:24:30.845Z,99.99
2023-01-08T09:25:26.107Z,99.99
2023-01-08T09:26:25.802Z,99.99
2023-01-08T09:27:25.790Z,99.99
2023-01-08T09:28:25.804Z,99.99
2023-01-08T09:29:25.788Z,99.99
2023-01-08T09:30:27.079Z,99.99
2023-01-08T09:31:25.933Z,99.99
2023-01-08T09:32:25.809Z,99.99
2023-01-08T09:33:25.722Z,99.99
2023-01-08T09:34:25.793Z,99.99
2023-01-08T09:35:30.764Z,99.99
2023-01-08T09:36:25.691Z,99.99
2023-01-08T09:37:25.677Z,99.99
2023-01-08T09:38:26.780Z,99.99
2023-01-08T09:39:25.660Z,99.99
2023-01-08T09:40:26.231Z,99.99
2023-01-08T09:41:25.649Z,99.99
2023-01-08T09:42:25.658Z,99.99
2023-01-08T09:43:25.690Z,99.99
2023-01-08T09:44:26.235Z,99.99
2023-01-08T09:45:27.605Z,99.99
2023-01-08T09:46:30.765Z,99.99
2023-01-08T09:47:25.569Z,99.99
2023-01-08T09:48:25.734Z,99.99
2023-01-08T09:49:25.548Z,99.99
2023-01-08T09:50:25.631Z,99.99
2023-01-08T09:51:25.575Z,99.99
2023-01-08T09:52:25.677Z,99.99
2023-01-08T09:53:25.735Z,99.99
2023-01-08T09:54:25.522Z,99.99
2023-01-08T09:55:25.472Z,99.99
2023-01-08T09:56:25.472Z,99.99
2023-01-08T09:57:31.338Z,99.99
2023-01-08T09:58:25.455Z,99.99
2023-01-08T09:59:25.429Z,99.99
2023-01-08T10:00:26.826Z,99.99
2023-01-08T10:01:25.569Z,99.99
2023-01-08T10:02:25.693Z,99.99
2023-01-08T10:03:25.420Z,99.99
2023-01-08T10:04:25.430Z,99.99
2023-01-08T10:05:25.357Z,99.99
2023-01-08T10:06:25.557Z,99.99
2023-01-08T10:07:25.342Z,99.99
2023-01-08T10:08:30.808Z,99.99
2023-01-08T10:09:25.351Z,99.99
2023-01-08T10:10:25.306Z,99.99
2023-01-08T10:11:25.311Z,99.99
2023-01-08T10:12:25.348Z,99.99
2023-01-08T10:13:25.272Z,99.99
2023-01-08T10:14:25.271Z,99.99
2023-01-08T10:15:25.263Z,99.99
2023-01-08T10:16:25.282Z,99.99
2023-01-08T10:17:25.239Z,99.99
2023-01-08T10:18:25.234Z,99.99
2023-01-08T10:19:31.939Z,99.99
2023-01-08T10:20:25.203Z,99.99
2023-01-08T10:21:25.216Z,99.99
2023-01-08T10:22:25.170Z,99.99
2023-01-08T10:23:25.161Z,99.99
2023-01-08T10:24:25.148Z,99.99
2023-01-08T10:25:25.584Z,99.99
2023-01-08T10:26:25.164Z,99.99
2023-01-08T10:27:25.420Z,99.99
2023-01-08T10:28:25.142Z,99.99
2023-01-08T10:29:25.456Z,99.99
2023-01-08T10:30:30.305Z,99.99
2023-01-08T10:31:25.133Z,99.99
2023-01-08T10:32:25.104Z,99.99
2023-01-08T10:33:25.104Z,99.68
2023-01-08T10:34:25.194Z,99.99
2023-01-08T10:35:25.049Z,99.99
2023-01-08T10:36:25.025Z,99.99
2023-01-08T10:37:25.027Z,99.99
2023-01-08T10:38:25.034Z,99.38
2023-01-08T10:39:24.987Z,99.17
2023-01-08T10:40:24.982Z,98.71
2023-01-08T10:41:31.107Z,99.12
2023-01-08T10:42:24.971Z,99.12
2023-01-08T10:43:24.999Z,98.71
2023-01-08T10:44:24.938Z,98.92
2023-01-08T10:45:24.926Z,99.12
2023-01-08T10:46:25.000Z,98.61
2023-01-08T10:47:25.887Z,98.20
2023-01-08T10:48:24.880Z,98.41
2023-01-08T10:49:24.890Z,98.20
2023-01-08T10:50:24.917Z,97.79
2023-01-08T10:51:24.853Z,97.07
2023-01-08T10:52:29.987Z,97.89
2023-01-08T10:53:24.835Z,97.85
2023-01-08T10:54:24.922Z,97.28
2023-01-08T10:55:24.861Z,97.03
2023-01-08T10:56:24.813Z,97.28
2023-01-08T10:57:24.799Z,97.03
2023-01-08T10:58:24.803Z,96.92
2023-01-08T10:59:24.810Z,97.07
2023-01-08T11:00:24.781Z,97.23
2023-01-08T11:01:25.246Z,96.51
2023-01-08T11:02:25.009Z,96.31
2023-01-08T11:03:29.789Z,96.31
2023-01-08T11:04:24.834Z,96.31
2023-01-08T11:05:24.696Z,96.10
2023-01-08T11:06:24.722Z,95.28
2023-01-08T11:07:24.707Z,94.93
2023-01-08T11:08:24.750Z,94.93
2023-01-08T11:09:24.726Z,94.58
2023-01-08T11:10:24.688Z,93.55
2023-01-08T11:11:24.651Z,93.30
2023-01-08T11:12:24.670Z,92.79
2023-01-08T11:13:25.595Z,92.28
2023-01-08T11:14:29.602Z,91.97
2023-01-08T11:15:24.580Z,92.44
2023-01-08T11:16:24.677Z,92.24
2023-01-08T11:17:25.572Z,92.91
2023-01-08T11:18:24.574Z,91.58
2023-01-08T11:19:24.526Z,91.83
2023-01-08T11:20:24.526Z,92.03
2023-01-08T11:21:24.523Z,92.75
2023-01-08T11:22:24.545Z,92.50
2023-01-08T11:23:24.554Z,92.03
2023-01-08T11:24:24.470Z,91.63
2023-01-08T11:25:29.486Z,91.36
2023-01-08T11:26:24.456Z,92.90
2023-01-08T11:27:24.460Z,92.90
2023-01-08T11:28:24.437Z,93.10
2023-01-08T11:29:24.478Z,93.20
2023-01-08T11:30:24.432Z,93.41
2023-01-08T11:31:24.513Z,93.00
2023-01-08T11:32:24.417Z,92.79
2023-01-08T11:33:24.383Z,93.20
2023-01-08T11:34:25.377Z,93.20
2023-01-08T11:35:24.357Z,93.16
2023-01-08T11:36:29.369Z,91.83
2023-01-08T11:37:24.369Z,91.83
2023-01-08T11:38:24.337Z,92.96
2023-01-08T11:39:24.319Z,92.55
2023-01-08T11:40:24.294Z,93.00
2023-01-08T11:41:25.652Z,92.96
2023-01-08T11:42:24.294Z,92.90
2023-01-08T11:43:24.255Z,93.30
2023-01-08T11:44:24.242Z,92.18
2023-01-08T11:45:24.276Z,92.75
2023-01-08T11:46:24.220Z,92.96
2023-01-08T11:47:29.248Z,91.73
2023-01-08T11:48:24.202Z,91.52
2023-01-08T11:49:24.190Z,92.03
2023-01-08T11:50:25.180Z,91.63
2023-01-08T11:51:24.163Z,91.22
2023-01-08T11:52:24.180Z,90.70
2023-01-08T11:53:24.164Z,91.22
2023-01-08T11:54:24.152Z,90.60
2023-01-08T11:55:24.128Z,90.75
2023-01-08T11:56:24.108Z,91.73
2023-01-08T11:57:24.188Z,91.52
2023-01-08T11:58:29.127Z,90.70
2023-01-08T11:59:24.077Z,90.91
2023-01-08T12:00:24.086Z,91.01
2023-01-08T12:01:24.079Z,90.81
2023-01-08T12:02:24.098Z,90.70
2023-01-08T12:03:24.292Z,91.11
2023-01-08T12:04:24.052Z,91.01
2023-01-08T12:05:24.003Z,90.60
2023-01-08T12:06:24.013Z,91.11
2023-01-08T12:07:23.983Z,91.01
2023-01-08T12:08:23.981Z,90.70
2023-01-08T12:09:29.009Z,91.31
2023-01-08T12:10:23.951Z,91.42
2023-01-08T12:11:23.961Z,91.31
2023-01-08T12:12:23.982Z,92.03
2023-01-08T12:13:23.928Z,91.42
2023-01-08T12:14:23.905Z,90.60
2023-01-08T12:15:24.898Z,89.89
2023-01-08T12:16:23.989Z,89.89
2023-01-08T12:17:24.963Z,89.74
2023-01-08T12:18:23.878Z,90.36
2023-01-08T12:19:23.867Z,90.81
2023-01-08T12:20:28.859Z,90.30
2023-01-08T12:21:23.824Z,90.91
2023-01-08T12:22:23.831Z,90.60
2023-01-08T12:23:23.823Z,90.60
2023-01-08T12:24:23.791Z,90.81
2023-01-08T12:25:23.809Z,90.60
2023-01-08T12:26:23.773Z,89.58
2023-01-08T12:27:40.821Z,90.09
2023-01-08T12:28:24.767Z,89.58
2023-01-08T12:29:23.730Z,90.36
2023-01-08T12:30:23.800Z,91.07
2023-01-08T12:31:28.773Z,90.86
2023-01-08T12:32:23.751Z,91.17
2023-01-08T12:33:23.779Z,90.45
2023-01-08T12:34:23.698Z,90.36
2023-01-08T12:35:23.671Z,89.74
2023-01-08T12:36:23.725Z,89.74
2023-01-08T12:37:23.637Z,89.89
2023-01-08T12:38:23.637Z,90.25
2023-01-08T12:39:23.651Z,89.89
2023-01-08T12:40:23.635Z,90.25
2023-01-08T12:41:23.684Z,90.15
2023-01-08T12:42:28.703Z,89.64
2023-01-08T12:43:23.574Z,89.90
2023-01-08T12:44:23.692Z,89.94
2023-01-08T12:45:23.550Z,89.50
2023-01-08T12:46:23.545Z,89.23
2023-01-08T12:47:23.527Z,89.74
2023-01-08T12:48:23.525Z,89.53
2023-01-08T12:49:23.515Z,89.12
2023-01-08T12:50:23.514Z,88.62
2023-01-08T12:51:23.504Z,88.82
2023-01-08T12:52:23.489Z,89.43
2023-01-08T12:53:28.501Z,89.74
2023-01-08T12:54:23.455Z,89.64
2023-01-08T12:55:23.494Z,89.12
2023-01-08T12:56:23.421Z,89.74
2023-01-08T12:57:23.438Z,89.74
2023-01-08T12:58:23.437Z,90.05
2023-01-08T12:59:23.401Z,89.53
2023-01-08T13:00:23.394Z,88.71
2023-01-08T13:01:23.609Z,89.53
2023-01-08T13:02:24.105Z,89.03
2023-01-08T13:03:23.346Z,89.33
2023-01-08T13:04:28.379Z,89.33
2023-01-08T13:05:23.324Z,89.12
2023-01-08T13:06:23.319Z,89.12
2023-01-08T13:07:23.305Z,89.18
2023-01-08T13:08:23.302Z,88.10
2023-01-08T13:09:23.328Z,89.03
2023-01-08T13:10:23.279Z,90.05
2023-01-08T13:11:23.256Z,89.33
2023-01-08T13:12:23.257Z,89.64
2023-01-08T13:13:23.264Z,89.33
2023-01-08T13:14:23.219Z,89.23
2023-01-08T13:15:28.242Z,90.05
2023-01-08T13:16:23.215Z,89.33
2023-01-08T13:17:23.205Z,89.74
2023-01-08T13:18:23.194Z,89.94
2023-01-08T13:19:23.168Z,89.74
2023-01-08T13:20:23.169Z,89.74
2023-01-08T13:21:23.137Z,89.74
2023-01-08T13:22:23.164Z,89.53
2023-01-08T13:23:23.147Z,89.78
2023-01-08T13:24:23.111Z,89.74
2023-01-08T13:25:23.115Z,89.43
2023-01-08T13:26:28.127Z,89.53
2023-01-08T13:27:23.070Z,89.33
2023-01-08T13:28:26.055Z,90.19
2023-01-08T13:29:23.066Z,90.45
2023-01-08T13:30:23.038Z,90.66
2023-01-08T13:31:23.035Z,90.60
2023-01-08T13:32:23.020Z,91.01
2023-01-08T13:33:23.019Z,90.86
2023-01-08T13:34:22.996Z,90.50
2023-01-08T13:35:22.999Z,91.01
2023-01-08T13:36:23.020Z,91.01
2023-01-08T13:37:28.288Z,91.01
2023-01-08T13:38:22.969Z,90.81
2023-01-08T13:39:22.955Z,90.97
2023-01-08T13:40:22.935Z,90.77
2023-01-08T13:41:22.916Z,89.94
2023-01-08T13:42:22.906Z,90.25
2023-01-08T13:43:22.905Z,89.74
2023-01-08T13:44:23.950Z,90.36
2023-01-08T13:45:22.919Z,90.25
2023-01-08T13:46:22.858Z,89.94
2023-01-08T13:47:22.958Z,89.53
2023-01-08T13:48:27.922Z,89.74
2023-01-08T13:49:22.908Z,90.70
2023-01-08T13:50:22.831Z,90.36
2023-01-08T13:51:22.888Z,91.11
2023-01-08T13:52:22.791Z,90.70
2023-01-08T13:53:22.822Z,90.97
2023-01-08T13:54:22.958Z,91.11
2023-01-08T13:55:22.759Z,91.07
2023-01-08T13:56:22.868Z,90.25
2023-01-08T13:57:22.840Z,90.25
2023-01-08T13:58:22.758Z,90.39
2023-01-08T13:59:27.728Z,89.84
2023-01-08T14:00:22.797Z,89.37
2023-01-08T14:01:23.208Z,89.98
2023-01-08T14:02:22.967Z,90.05
2023-01-08T14:03:22.725Z,89.53
2023-01-08T14:04:22.735Z,89.64
2023-01-08T14:05:23.066Z,89.43
2023-01-08T14:06:22.646Z,89.74
2023-01-08T14:07:22.711Z,89.53
2023-01-08T14:08:22.761Z,89.64
2023-01-08T14:09:22.602Z,88.71
2023-01-08T14:10:27.607Z,89.43
2023-01-08T14:11:22.669Z,89.53
2023-01-08T14:12:22.583Z,89.74
2023-01-08T14:13:22.686Z,89.84
2023-01-08T14:14:22.756Z,89.37
2023-01-08T14:15:22.619Z,90.05
2023-01-08T14:16:22.960Z,90.36
2023-01-08T14:17:22.543Z,89.12
2023-01-08T14:18:23.022Z,89.03
2023-01-08T14:19:22.502Z,88.41
2023-01-08T14:20:22.468Z,89.12
2023-01-08T14:21:27.720Z,89.53
2023-01-08T14:22:22.444Z,89.18
2023-01-08T14:23:22.532Z,88.20
2023-01-08T14:24:22.447Z,88.71
2023-01-08T14:25:22.427Z,88.10
2023-01-08T14:26:22.473Z,87.70
2023-01-08T14:27:22.669Z,88.10
2023-01-08T14:28:22.405Z,88.10
2023-01-08T14:29:22.896Z,87.90
2023-01-08T14:30:22.384Z,88.51
2023-01-08T14:31:22.410Z,88.71
2023-01-08T14:32:27.379Z,88.10
2023-01-08T14:33:22.350Z,87.79
2023-01-08T14:34:22.472Z,88.41
2023-01-08T14:35:22.347Z,88.20
2023-01-08T14:36:22.306Z,88.00
2023-01-08T14:37:22.298Z,87.79
2023-01-08T14:38:22.293Z,87.79
2023-01-08T14:39:22.262Z,87.59
2023-01-08T14:40:22.562Z,87.79
2023-01-08T14:41:22.300Z,88.10
2023-01-08T14:42:22.365Z,87.70
2023-01-08T14:43:27.694Z,87.79
2023-01-08T14:44:29.141Z,87.79
2023-01-08T14:45:23.177Z,88.00
2023-01-08T14:46:22.297Z,87.90
2023-01-08T14:47:22.161Z,87.79
2023-01-08T14:48:22.206Z,87.90
2023-01-08T14:49:22.220Z,87.79
2023-01-08T14:50:22.161Z,87.49
2023-01-08T14:51:22.125Z,87.70
2023-01-08T14:52:22.138Z,87.49
2023-01-08T14:53:22.246Z,87.90
2023-01-08T14:54:27.148Z,87.38
2023-01-08T14:55:22.060Z,87.29
2023-01-08T14:56:22.165Z,87.29
2023-01-08T14:57:24.174Z,87.08
2023-01-08T14:58:22.061Z,87.29
2023-01-08T14:59:22.245Z,86.98
2023-01-08T15:00:22.082Z,87.08
2023-01-08T15:01:22.251Z,87.29
2023-01-08T15:02:22.185Z,87.38
2023-01-08T15:03:23.551Z,87.79
2023-01-08T15:04:22.056Z,87.38
2023-01-08T15:05:27.219Z,87.90
2023-01-08T15:06:23.734Z,87.79
2023-01-08T15:07:22.092Z,87.70
2023-01-08T15:08:22.279Z,87.70
2023-01-08T15:09:22.044Z,87.43
2023-01-08T15:10:21.911Z,87.18
2023-01-08T15:11:21.962Z,87.63
2023-01-08T15:12:21.885Z,87.84
2023-01-08T15:13:23.667Z,87.84
2023-01-08T15:14:21.856Z,88.04
2023-01-08T15:15:22.079Z,88.04
2023-01-08T15:16:26.937Z,88.04
2023-01-08T15:17:21.924Z,87.63
2023-01-08T15:18:22.186Z,88.14
2023-01-08T15:19:22.909Z,87.53
2023-01-08T15:20:21.855Z,87.32
2023-01-08T15:21:22.859Z,87.73
2023-01-08T15:22:21.991Z,87.73
2023-01-08T15:23:21.750Z,87.84
2023-01-08T15:24:22.791Z,87.53
2023-01-08T15:25:21.979Z,87.63
2023-01-08T15:26:22.191Z,87.63
2023-01-08T15:27:26.822Z,87.73
2023-01-08T15:28:21.748Z,88.14
2023-01-08T15:29:21.868Z,88.29
2023-01-08T15:30:21.829Z,88.29
2023-01-08T15:31:21.731Z,88.29
2023-01-08T15:32:22.492Z,88.39
2023-01-08T15:33:21.883Z,88.18
2023-01-08T15:34:21.935Z,88.29
2023-01-08T15:35:21.607Z,88.39
2023-01-08T15:36:21.687Z,88.08
2023-01-08T15:37:21.748Z,88.29
2023-01-08T15:38:26.659Z,87.88
2023-01-08T15:39:21.981Z,87.98
2023-01-08T15:40:21.996Z,87.63
2023-01-08T15:41:22.682Z,87.88
2023-01-08T15:42:22.071Z,88.08
2023-01-08T15:43:22.084Z,88.08
2023-01-08T15:44:22.054Z,88.18
2023-01-08T15:45:21.579Z,87.98
2023-01-08T15:46:21.978Z,88.39
2023-01-08T15:47:21.603Z,87.98
2023-01-08T15:48:21.521Z,88.18
2023-01-08T15:49:26.559Z,88.49
2023-01-08T15:50:21.634Z,88.39
2023-01-08T15:51:21.472Z,88.59
2023-01-08T15:52:21.529Z,88.29
2023-01-08T15:53:21.524Z,88.29
2023-01-08T15:54:21.497Z,88.39
2023-01-08T15:55:21.513Z,89.11
2023-01-08T15:56:21.573Z,88.90
2023-01-08T15:57:21.397Z,88.18
2023-01-08T15:58:21.398Z,88.29
2023-01-08T15:59:21.378Z,88.18
2023-01-08T16:00:26.355Z,88.49
2023-01-08T16:01:21.771Z,88.59
2023-01-08T16:02:21.517Z,88.29
2023-01-08T16:03:21.376Z,88.18
2023-01-08T16:04:21.368Z,88.49
2023-01-08T16:05:21.377Z,88.18
2023-01-08T16:06:21.285Z,88.49
2023-01-08T16:07:21.328Z,88.39
2023-01-08T16:08:21.662Z,88.29
2023-01-08T16:09:21.351Z,88.74
2023-01-08T16:10:21.227Z,88.70
2023-01-08T16:11:26.236Z,88.59
2023-01-08T16:12:21.411Z,88.59
2023-01-08T16:13:21.182Z,88.18
2023-01-08T16:14:21.743Z,88.39
2023-01-08T16:15:22.135Z,88.02
2023-01-08T16:16:22.116Z,88.33
2023-01-08T16:17:21.611Z,88.08
2023-01-08T16:18:22.231Z,88.39
2023-01-08T16:19:21.360Z,88.29
2023-01-08T16:20:21.507Z,88.02
2023-01-08T16:21:21.291Z,87.98
2023-01-08T16:22:26.374Z,87.88
2023-01-08T16:23:21.104Z,87.98
2023-01-08T16:24:21.614Z,87.67
2023-01-08T16:25:21.291Z,88.18
2023-01-08T16:26:21.295Z,88.08
2023-01-08T16:27:21.190Z,88.29
2023-01-08T16:28:21.070Z,87.88
2023-01-08T16:29:21.125Z,87.88
2023-01-08T16:30:21.033Z,87.67
2023-01-08T16:31:21.360Z,88.08
2023-01-08T16:32:21.114Z,88.08
2023-01-08T16:33:26.231Z,88.18
2023-01-08T16:34:21.057Z,88.08
2023-01-08T16:35:20.980Z,88.29
2023-01-08T16:36:21.102Z,88.29
2023-01-08T16:37:21.253Z,88.49
2023-01-08T16:38:21.971Z,88.59
2023-01-08T16:39:20.993Z,88.70
2023-01-08T16:40:20.940Z,88.49
2023-01-08T16:41:21.267Z,88.23
2023-01-08T16:42:21.031Z,88.08
2023-01-08T16:43:21.229Z,88.18
2023-01-08T16:44:27.638Z,88.29
2023-01-08T16:45:21.098Z,88.18
2023-01-08T16:46:20.936Z,88.29
2023-01-08T16:47:22.127Z,88.18
2023-01-08T16:48:21.022Z,88.18
2023-01-08T16:49:21.503Z,88.59
2023-01-08T16:50:21.499Z,89.11
2023-01-08T16:51:20.748Z,88.18
2023-01-08T16:52:20.864Z,88.53
2023-01-08T16:53:21.028Z,88.74
2023-01-08T16:54:21.691Z,89.11
2023-01-08T16:55:25.984Z,88.84
2023-01-08T16:56:20.728Z,88.90
2023-01-08T16:57:21.138Z,88.39
2023-01-08T16:58:20.971Z,88.70
2023-01-08T16:59:23.604Z,88.80
2023-01-08T17:00:20.821Z,88.80
2023-01-08T17:01:20.832Z,88.18
2023-01-08T17:02:20.695Z,88.29
2023-01-08T17:03:20.700Z,88.94
2023-01-08T17:04:21.139Z,88.08
2023-01-08T17:05:20.869Z,88.49
2023-01-08T17:06:25.859Z,88.29
2023-01-08T17:07:21.277Z,88.08
2023-01-08T17:08:21.193Z,87.98
2023-01-08T17:09:20.653Z,88.80
2023-01-08T17:10:20.614Z,89.00
2023-01-08T17:11:20.566Z,88.29
2023-01-08T17:12:20.530Z,88.33
2023-01-08T17:13:20.855Z,88.23
2023-01-08T17:14:20.573Z,88.59
2023-01-08T17:15:20.561Z,88.29
2023-01-08T17:16:20.557Z,88.53
2023-01-08T17:17:25.616Z,88.18
2023-01-08T17:18:20.811Z,88.23
2023-01-08T17:19:21.098Z,88.49
2023-01-08T17:20:20.515Z,88.12
2023-01-08T17:21:20.560Z,88.23
2023-01-08T17:22:20.419Z,88.23
2023-01-08T17:23:20.777Z,88.53
2023-01-08T17:24:20.391Z,88.53
2023-01-08T17:25:20.657Z,88.59
2023-01-08T17:26:20.477Z,88.84
2023-01-08T17:27:20.507Z,88.33
2023-01-08T17:28:27.232Z,88.02
2023-01-08T17:29:20.819Z,88.84
2023-01-08T17:30:20.391Z,88.33
2023-01-08T17:31:21.559Z,88.43
2023-01-08T17:32:20.835Z,89.04
2023-01-08T17:33:20.431Z,88.12
2023-01-08T17:34:20.381Z,87.92
2023-01-08T17:35:20.374Z,88.74
2023-01-08T17:36:20.252Z,88.33
2023-01-08T17:37:20.473Z,88.12
2023-01-08T17:38:20.233Z,88.17
2023-01-08T17:39:25.317Z,88.23
2023-01-08T17:40:20.219Z,88.47
2023-01-08T17:41:20.285Z,88.68
2023-01-08T17:42:20.516Z,88.23
2023-01-08T17:43:20.277Z,87.82
2023-01-08T17:44:20.177Z,87.96
2023-01-08T17:45:20.185Z,88.17
2023-01-08T17:46:20.143Z,87.92
2023-01-08T17:47:21.047Z,87.92
2023-01-08T17:48:21.119Z,88.06
2023-01-08T17:49:20.119Z,88.37
2023-01-08T17:50:26.395Z,88.68
2023-01-08T17:51:20.357Z,88.68
2023-01-08T17:52:20.107Z,88.27